Observations for LEEDS AND BRADFORD, United Kingdom (EGNM)

EGNM 201550Z 26009KT 190V290 9999 SCT010 BKN015 11/09 Q1004 
EGNM 201520Z 26011KT 190V280 9999 FEW005 SCT020 11/10 Q1004 
EGNM 201450Z 26011KT 190V280 9999 -DZ FEW005 SCT020 11/10 Q1004 
EGNM 201420Z 26010KT 190V290 9999 -DZ FEW010 SCT025 12/11 Q1003 
EGNM 201350Z 27011KT 9999 FEW010 SCT025 12/11 Q1003 
EGNM 201320Z 27011KT 190V350 9999 FEW010 SCT025 13/11 Q1003 
EGNM 201250Z 26010KT 190V290 9999 SCT010 SCT016 13/12 Q1003 
EGNM 201220Z 27008KT 9999 SCT005 BKN015 13/12 Q1002 
EGNM 201150Z 27010KT 240V350 9999 SCT005 BKN015 13/12 Q1002 
EGNM 201120Z 27009KT 190V310 9999 SCT009 BKN015 13/12 Q1001 
EGNM 201050Z 27009KT 9999 SCT008 SCT012 13/12 Q1001 
EGNM 201020Z 28009KT 260V350 9999 SCT008 SCT012 13/12 Q1000 
EGNM 200950Z 27008KT 190V350 6000 -RA SCT004 BKN015 12/12 Q1000 
EGNM 200920Z 27007KT 190V350 6000 SCT004 BKN015 11/11 Q1000 
EGNM 200850Z 27006KT 8000 SCT008 SCT020 11/11 Q0999 
EGNM 200820Z 26006KT 190V300 8000 SCT020 BKN035 11/11 Q0999 
EGNM 200750Z 27005KT 260V350 9999 SCT020 10/10 Q0998
EGNM 200720Z 25005KT 190V280 9999 -RADZ SCT020 10/10 Q0998  
EGNM 200650Z 26006KT 3000 -RADZ BKN010 10/10 Q0997  
EGNM 200620Z 26006KT 9999 SCT020 BKN040 10/10 Q0997 
EGNM 200550Z VRB03KT 9999 FEW014 09/09 Q0996
EGNM 200520Z 16003KT 9999 SCT014 09/09 Q0996
EGNM 200450Z VRB02KT 9999 FEW021 09/09 Q0996
EGNM 200420Z VRB01KT 9999 FEW020 09/09 Q0995
EGNM 200350Z 17004KT 9999 FEW039 SCT044 10/10 Q0995 
EGNM 200320Z 16006KT 9999 SCT040 10/10 Q0995
EGNM 200250Z 15006KT 9999 SCT048 11/11 Q0995
EGNM 200220Z 14006KT 9999 -RA SCT004 BKN022 12/12 Q0995 
EGNM 200150Z 14006KT 9999 -RA SCT006 BKN009 12/12 Q0995 
EGNM 200120Z 16008KT 130V190 6000 -RA SCT003 BKN005 12/12 Q0995 
EGNM 200050Z 14008KT 110V170 9000 -RA BKN005 12/12 Q0995
EGNM 200020Z 13008KT 9000 SCT005 BKN007 12/12 Q0995 
EGNM 192350Z 13008KT 6000 SCT004 BKN007 12/12 Q0995 
EGNM 192320Z 13008KT 5000 -RA BR SCT003 BKN006 12/12 Q0995  
EGNM 192250Z 14010KT 7000 -RA SCT004 BKN007 12/12 Q0996 
EGNM 192220Z 14010KT 9000 -RA BKN006 12/12 Q0996
EGNM 192150Z 14009KT 9999 FEW005 BKN011 12/12 Q0996 
EGNM 192120Z 14008KT 9999 FEW004 SCT030 12/12 Q0996 
EGNM 192050Z 15008KT 120V190 9999 FEW025 12/12 Q0997
EGNM 192020Z 15006KT 130V190 9999 FEW008 12/12 Q0997
EGNM 191950Z 15005KT 110V180 9999 FEW008 12/12 Q0997
EGNM 191920Z 18004KT 140V220 9999 FEW006 12/12 Q0997
EGNM 191850Z 20007KT 170V240 9999 -RA SCT006 13/13 Q0997
EGNM 191820Z 20008KT 150V270 2500 RA BR SCT002 BKN008 14/14 Q0997   
EGNM 191750Z 13011KT 1400 R14/P1500 RA BR SCT001 BKN002 13/13 Q0997 
EGNM 191720Z 08005KT 050V110 0150 R14/0450 -RA FG VV/// 12/12 Q0997 
EGNM 191650Z 07006KT 040V100 0150 R14/0375 -RA FG VV/// 12/12 Q0998 
EGNM 191620Z 07006KT 040V100 0200 R14/0325 -RA FG VV/// 12/12 Q0998 
EGNM 191550Z 07008KT 040V110 0300 R14/0450 -RA FG VV/// 11/11 Q0999 
EGNM 191520Z 07007KT 050V110 1100 R14/P1500 -RA BR SCT001 OVC002 11/11 Q0999